sensor_id;sensor_type;location;lat;lon;timestamp;P1;durP1;ratioP1;P2;durP2;ratioP2
35971;SDS011;22052;0.000;0.000;2023-01-10T00:00:27;9.20;;;2.83;;
35971;SDS011;22052;0.000;0.000;2023-01-10T00:05:22;8.40;;;2.70;;
35971;SDS011;22052;0.000;0.000;2023-01-10T00:07:48;10.70;;;2.33;;
35971;SDS011;22052;0.000;0.000;2023-01-10T00:10:14;8.02;;;2.80;;
35971;SDS011;22052;0.000;0.000;2023-01-10T00:12:40;7.05;;;2.60;;
35971;SDS011;22052;0.000;0.000;2023-01-10T00:15:25;5.10;;;2.58;;
35971;SDS011;22052;0.000;0.000;2023-01-10T00:17:52;6.80;;;2.50;;
35971;SDS011;22052;0.000;0.000;2023-01-10T00:20:18;8.55;;;3.20;;
35971;SDS011;22052;0.000;0.000;2023-01-10T00:22:44;4.85;;;2.33;;
35971;SDS011;22052;0.000;0.000;2023-01-10T00:25:10;7.78;;;2.75;;
35971;SDS011;22052;0.000;0.000;2023-01-10T00:27:37;5.28;;;2.67;;
35971;SDS011;22052;0.000;0.000;2023-01-10T00:30:03;7.28;;;2.88;;
35971;SDS011;22052;0.000;0.000;2023-01-10T00:32:39;6.25;;;2.85;;
35971;SDS011;22052;0.000;0.000;2023-01-10T00:35:05;7.45;;;2.90;;
35971;SDS011;22052;0.000;0.000;2023-01-10T00:37:33;6.43;;;2.75;;
35971;SDS011;22052;0.000;0.000;2023-01-10T00:39:59;8.60;;;3.00;;
35971;SDS011;22052;0.000;0.000;2023-01-10T00:42:26;5.32;;;2.38;;
35971;SDS011;22052;0.000;0.000;2023-01-10T00:45:11;4.70;;;2.33;;
35971;SDS011;22052;0.000;0.000;2023-01-10T00:47:37;6.90;;;2.50;;
35971;SDS011;22052;0.000;0.000;2023-01-10T00:50:03;6.88;;;2.70;;
35971;SDS011;22052;0.000;0.000;2023-01-10T00:52:30;5.88;;;2.38;;
35971;SDS011;22052;0.000;0.000;2023-01-10T00:54:56;6.75;;;2.75;;
35971;SDS011;22052;0.000;0.000;2023-01-10T00:57:22;5.85;;;2.40;;
35971;SDS011;22052;0.000;0.000;2023-01-10T00:59:49;5.70;;;2.65;;
35971;SDS011;22052;0.000;0.000;2023-01-10T01:02:15;7.75;;;2.75;;
35971;SDS011;22052;0.000;0.000;2023-01-10T01:04:41;6.10;;;2.65;;
35971;SDS011;22052;0.000;0.000;2023-01-10T01:07:07;4.93;;;2.47;;
35971;SDS011;22052;0.000;0.000;2023-01-10T01:09:33;5.80;;;2.85;;
35971;SDS011;22052;0.000;0.000;2023-01-10T01:12:19;7.38;;;2.50;;
35971;SDS011;22052;0.000;0.000;2023-01-10T01:14:46;6.88;;;2.75;;
35971;SDS011;22052;0.000;0.000;2023-01-10T01:17:12;5.38;;;2.72;;
35971;SDS011;22052;0.000;0.000;2023-01-10T01:19:38;6.80;;;3.03;;
35971;SDS011;22052;0.000;0.000;2023-01-10T01:22:04;6.28;;;2.40;;
35971;SDS011;22052;0.000;0.000;2023-01-10T01:24:30;7.18;;;2.40;;
35971;SDS011;22052;0.000;0.000;2023-01-10T01:26:57;6.38;;;2.65;;
35971;SDS011;22052;0.000;0.000;2023-01-10T01:29:23;6.00;;;2.58;;
35971;SDS011;22052;0.000;0.000;2023-01-10T01:31:49;5.80;;;2.45;;
35971;SDS011;22052;0.000;0.000;2023-01-10T01:34:15;5.55;;;2.72;;
35971;SDS011;22052;0.000;0.000;2023-01-10T01:36:41;9.52;;;3.10;;
35971;SDS011;22052;0.000;0.000;2023-01-10T01:39:07;6.25;;;2.60;;
35971;SDS011;22052;0.000;0.000;2023-01-10T01:41:34;5.75;;;2.35;;
35971;SDS011;22052;0.000;0.000;2023-01-10T01:44:18;7.03;;;2.50;;
35971;SDS011;22052;0.000;0.000;2023-01-10T01:46:46;5.32;;;2.42;;
35971;SDS011;22052;0.000;0.000;2023-01-10T01:49:19;5.88;;;2.42;;
35971;SDS011;22052;0.000;0.000;2023-01-10T01:51:46;5.25;;;2.13;;
35971;SDS011;22052;0.000;0.000;2023-01-10T01:54:14;4.28;;;2.40;;
35971;SDS011;22052;0.000;0.000;2023-01-10T01:56:43;5.38;;;2.97;;
35971;SDS011;22052;0.000;0.000;2023-01-10T01:59:22;4.80;;;2.50;;
35971;SDS011;22052;0.000;0.000;2023-01-10T02:01:49;5.45;;;2.67;;
35971;SDS011;22052;0.000;0.000;2023-01-10T02:04:19;4.45;;;2.50;;
35971;SDS011;22052;0.000;0.000;2023-01-10T02:06:47;3.78;;;2.20;;
35971;SDS011;22052;0.000;0.000;2023-01-10T02:09:25;5.38;;;2.33;;
35971;SDS011;22052;0.000;0.000;2023-01-10T02:11:53;5.88;;;2.70;;
35971;SDS011;22052;0.000;0.000;2023-01-10T02:14:20;5.82;;;2.60;;
35971;SDS011;22052;0.000;0.000;2023-01-10T02:16:48;5.35;;;2.33;;
35971;SDS011;22052;0.000;0.000;2023-01-10T02:19:26;6.75;;;3.10;;
35971;SDS011;22052;0.000;0.000;2023-01-10T02:22:04;4.47;;;2.40;;
35971;SDS011;22052;0.000;0.000;2023-01-10T02:27:13;6.78;;;2.85;;
35971;SDS011;22052;0.000;0.000;2023-01-10T02:37:29;5.50;;;2.60;;
35971;SDS011;22052;0.000;0.000;2023-01-10T02:40:21;4.95;;;2.92;;
35971;SDS011;22052;0.000;0.000;2023-01-10T02:42:58;7.68;;;2.78;;
35971;SDS011;22052;0.000;0.000;2023-01-10T02:45:28;5.03;;;2.42;;
35971;SDS011;22052;0.000;0.000;2023-01-10T02:47:55;6.40;;;2.78;;
35971;SDS011;22052;0.000;0.000;2023-01-10T02:50:25;4.82;;;2.53;;
35971;SDS011;22052;0.000;0.000;2023-01-10T02:52:53;5.97;;;2.70;;
35971;SDS011;22052;0.000;0.000;2023-01-10T02:55:20;4.72;;;2.40;;
35971;SDS011;22052;0.000;0.000;2023-01-10T02:58:14;6.28;;;2.28;;
35971;SDS011;22052;0.000;0.000;2023-01-10T03:01:25;4.93;;;2.80;;
35971;SDS011;22052;0.000;0.000;2023-01-10T03:03:39;5.53;;;2.42;;
35971;SDS011;22052;0.000;0.000;2023-01-10T03:11:08;5.43;;;2.40;;
35971;SDS011;22052;0.000;0.000;2023-01-10T03:13:36;4.88;;;2.58;;
35971;SDS011;22052;0.000;0.000;2023-01-10T03:16:07;4.65;;;2.30;;
35971;SDS011;22052;0.000;0.000;2023-01-10T03:18:37;4.25;;;2.10;;
35971;SDS011;22052;0.000;0.000;2023-01-10T03:21:05;5.13;;;2.42;;
35971;SDS011;22052;0.000;0.000;2023-01-10T03:23:33;5.65;;;2.53;;
35971;SDS011;22052;0.000;0.000;2023-01-10T03:25:59;5.40;;;2.40;;
35971;SDS011;22052;0.000;0.000;2023-01-10T03:28:29;4.70;;;2.40;;
35971;SDS011;22052;0.000;0.000;2023-01-10T03:30:58;4.20;;;2.65;;
35971;SDS011;22052;0.000;0.000;2023-01-10T03:33:27;4.65;;;2.60;;
35971;SDS011;22052;0.000;0.000;2023-01-10T03:38:56;6.15;;;2.40;;
35971;SDS011;22052;0.000;0.000;2023-01-10T03:41:36;5.38;;;2.47;;
35971;SDS011;22052;0.000;0.000;2023-01-10T03:44:15;4.68;;;2.22;;
35971;SDS011;22052;0.000;0.000;2023-01-10T03:49:36;5.88;;;2.20;;
35971;SDS011;22052;0.000;0.000;2023-01-10T03:52:04;4.32;;;2.28;;
35971;SDS011;22052;0.000;0.000;2023-01-10T03:54:30;5.57;;;2.55;;
35971;SDS011;22052;0.000;0.000;2023-01-10T03:56:56;5.28;;;2.40;;
35971;SDS011;22052;0.000;0.000;2023-01-10T03:59:26;5.97;;;2.58;;
35971;SDS011;22052;0.000;0.000;2023-01-10T04:01:53;5.22;;;2.13;;
35971;SDS011;22052;0.000;0.000;2023-01-10T04:04:20;4.97;;;2.50;;
35971;SDS011;22052;0.000;0.000;2023-01-10T04:06:46;4.38;;;2.28;;
35971;SDS011;22052;0.000;0.000;2023-01-10T04:09:12;4.05;;;2.13;;
35971;SDS011;22052;0.000;0.000;2023-01-10T04:11:38;4.00;;;2.15;;
35971;SDS011;22052;0.000;0.000;2023-01-10T04:14:04;4.07;;;2.25;;
35971;SDS011;22052;0.000;0.000;2023-01-10T04:16:31;3.85;;;2.13;;
35971;SDS011;22052;0.000;0.000;2023-01-10T04:18:57;4.63;;;2.42;;
35971;SDS011;22052;0.000;0.000;2023-01-10T04:21:23;3.92;;;2.40;;
35971;SDS011;22052;0.000;0.000;2023-01-10T04:23:49;5.50;;;2.63;;
35971;SDS011;22052;0.000;0.000;2023-01-10T04:26:16;3.80;;;2.20;;
35971;SDS011;22052;0.000;0.000;2023-01-10T04:28:42;4.45;;;2.20;;
35971;SDS011;22052;0.000;0.000;2023-01-10T04:31:08;4.53;;;2.10;;
35971;SDS011;22052;0.000;0.000;2023-01-10T04:33:34;3.92;;;2.30;;
35971;SDS011;22052;0.000;0.000;2023-01-10T04:36:03;4.25;;;2.33;;
35971;SDS011;22052;0.000;0.000;2023-01-10T04:38:29;3.90;;;2.10;;
35971;SDS011;22052;0.000;0.000;2023-01-10T04:40:58;4.68;;;2.53;;
35971;SDS011;22052;0.000;0.000;2023-01-10T04:43:25;5.40;;;2.83;;
35971;SDS011;22052;0.000;0.000;2023-01-10T04:45:51;4.50;;;2.33;;
35971;SDS011;22052;0.000;0.000;2023-01-10T04:48:17;3.67;;;2.13;;
35971;SDS011;22052;0.000;0.000;2023-01-10T04:50:49;3.70;;;2.38;;
35971;SDS011;22052;0.000;0.000;2023-01-10T04:53:16;4.35;;;2.05;;
35971;SDS011;22052;0.000;0.000;2023-01-10T04:55:42;5.68;;;2.28;;
35971;SDS011;22052;0.000;0.000;2023-01-10T04:58:08;4.80;;;2.22;;
35971;SDS011;22052;0.000;0.000;2023-01-10T05:00:34;4.75;;;2.47;;
35971;SDS011;22052;0.000;0.000;2023-01-10T05:03:01;5.35;;;2.60;;
35971;SDS011;22052;0.000;0.000;2023-01-10T05:05:27;5.53;;;2.45;;
35971;SDS011;22052;0.000;0.000;2023-01-10T05:07:53;5.35;;;2.40;;
35971;SDS011;22052;0.000;0.000;2023-01-10T05:10:19;4.68;;;2.25;;
35971;SDS011;22052;0.000;0.000;2023-01-10T05:12:45;4.95;;;2.35;;
35971;SDS011;22052;0.000;0.000;2023-01-10T05:15:12;3.53;;;2.10;;
35971;SDS011;22052;0.000;0.000;2023-01-10T05:17:38;6.72;;;2.40;;
35971;SDS011;22052;0.000;0.000;2023-01-10T05:20:04;6.90;;;2.70;;
35971;SDS011;22052;0.000;0.000;2023-01-10T05:22:31;5.07;;;2.40;;
35971;SDS011;22052;0.000;0.000;2023-01-10T05:24:58;4.45;;;2.40;;
35971;SDS011;22052;0.000;0.000;2023-01-10T05:27:24;4.78;;;2.30;;
35971;SDS011;22052;0.000;0.000;2023-01-10T05:29:50;4.45;;;2.17;;
35971;SDS011;22052;0.000;0.000;2023-01-10T05:32:16;7.00;;;2.60;;
35971;SDS011;22052;0.000;0.000;2023-01-10T05:34:42;5.40;;;2.50;;
35971;SDS011;22052;0.000;0.000;2023-01-10T05:37:08;4.07;;;2.20;;
35971;SDS011;22052;0.000;0.000;2023-01-10T05:39:35;5.43;;;2.60;;
35971;SDS011;22052;0.000;0.000;2023-01-10T05:42:01;8.88;;;2.72;;
35971;SDS011;22052;0.000;0.000;2023-01-10T05:44:29;5.60;;;2.50;;
35971;SDS011;22052;0.000;0.000;2023-01-10T05:46:56;7.60;;;2.80;;
35971;SDS011;22052;0.000;0.000;2023-01-10T05:49:22;6.10;;;2.63;;
35971;SDS011;22052;0.000;0.000;2023-01-10T05:51:48;6.00;;;2.90;;
35971;SDS011;22052;0.000;0.000;2023-01-10T05:54:14;5.40;;;2.65;;
35971;SDS011;22052;0.000;0.000;2023-01-10T05:56:40;5.78;;;2.60;;
35971;SDS011;22052;0.000;0.000;2023-01-10T05:59:07;9.30;;;2.78;;
35971;SDS011;22052;0.000;0.000;2023-01-10T06:01:33;7.05;;;2.70;;
35971;SDS011;22052;0.000;0.000;2023-01-10T06:03:59;5.57;;;2.60;;
35971;SDS011;22052;0.000;0.000;2023-01-10T06:06:26;6.80;;;2.58;;
35971;SDS011;22052;0.000;0.000;2023-01-10T06:08:52;6.70;;;2.70;;
35971;SDS011;22052;0.000;0.000;2023-01-10T06:11:20;7.28;;;3.13;;
35971;SDS011;22052;0.000;0.000;2023-01-10T06:13:53;13.73;;;2.85;;
35971;SDS011;22052;0.000;0.000;2023-01-10T06:16:20;6.80;;;2.95;;
35971;SDS011;22052;0.000;0.000;2023-01-10T06:18:46;6.32;;;2.63;;
35971;SDS011;22052;0.000;0.000;2023-01-10T06:21:12;9.50;;;2.88;;
35971;SDS011;22052;0.000;0.000;2023-01-10T06:23:38;7.75;;;2.88;;
35971;SDS011;22052;0.000;0.000;2023-01-10T06:26:05;7.45;;;2.90;;
35971;SDS011;22052;0.000;0.000;2023-01-10T06:28:31;10.63;;;3.28;;
35971;SDS011;22052;0.000;0.000;2023-01-10T06:30:57;8.75;;;3.10;;
35971;SDS011;22052;0.000;0.000;2023-01-10T06:33:23;6.18;;;2.80;;
35971;SDS011;22052;0.000;0.000;2023-01-10T06:35:50;9.93;;;3.08;;
35971;SDS011;22052;0.000;0.000;2023-01-10T06:38:17;10.93;;;3.50;;
35971;SDS011;22052;0.000;0.000;2023-01-10T06:40:43;9.00;;;3.17;;
35971;SDS011;22052;0.000;0.000;2023-01-10T06:43:09;8.73;;;3.47;;
35971;SDS011;22052;0.000;0.000;2023-01-10T06:45:35;11.32;;;2.85;;
35971;SDS011;22052;0.000;0.000;2023-01-10T06:48:02;6.53;;;3.10;;
35971;SDS011;22052;0.000;0.000;2023-01-10T06:50:28;7.43;;;3.25;;
35971;SDS011;22052;0.000;0.000;2023-01-10T06:52:59;9.60;;;3.28;;
35971;SDS011;22052;0.000;0.000;2023-01-10T06:55:25;11.65;;;2.85;;
35971;SDS011;22052;0.000;0.000;2023-01-10T06:57:59;8.52;;;3.42;;
35971;SDS011;22052;0.000;0.000;2023-01-10T07:00:27;10.68;;;3.50;;
35971;SDS011;22052;0.000;0.000;2023-01-10T07:02:53;10.05;;;3.75;;
35971;SDS011;22052;0.000;0.000;2023-01-10T07:05:20;10.20;;;3.50;;
35971;SDS011;22052;0.000;0.000;2023-01-10T07:07:46;12.20;;;3.40;;
35971;SDS011;22052;0.000;0.000;2023-01-10T07:10:13;10.10;;;3.65;;
35971;SDS011;22052;0.000;0.000;2023-01-10T07:12:39;10.25;;;3.65;;
35971;SDS011;22052;0.000;0.000;2023-01-10T07:15:05;9.73;;;3.13;;
35971;SDS011;22052;0.000;0.000;2023-01-10T07:17:32;8.93;;;3.80;;
35971;SDS011;22052;0.000;0.000;2023-01-10T07:19:58;11.68;;;3.60;;
35971;SDS011;22052;0.000;0.000;2023-01-10T07:22:24;6.28;;;3.08;;
35971;SDS011;22052;0.000;0.000;2023-01-10T07:24:50;7.68;;;3.42;;
35971;SDS011;22052;0.000;0.000;2023-01-10T07:27:18;11.65;;;3.38;;
35971;SDS011;22052;0.000;0.000;2023-01-10T07:29:45;9.18;;;3.60;;
35971;SDS011;22052;0.000;0.000;2023-01-10T07:32:11;8.77;;;3.40;;
35971;SDS011;22052;0.000;0.000;2023-01-10T07:34:37;9.82;;;3.83;;
35971;SDS011;22052;0.000;0.000;2023-01-10T07:37:03;8.70;;;3.10;;
35971;SDS011;22052;0.000;0.000;2023-01-10T07:39:29;10.13;;;3.95;;
35971;SDS011;22052;0.000;0.000;2023-01-10T07:41:56;11.70;;;3.67;;
35971;SDS011;22052;0.000;0.000;2023-01-10T07:44:22;10.00;;;3.45;;
35971;SDS011;22052;0.000;0.000;2023-01-10T07:46:48;8.25;;;3.35;;
35971;SDS011;22052;0.000;0.000;2023-01-10T07:49:15;12.80;;;3.65;;
35971;SDS011;22052;0.000;0.000;2023-01-10T07:51:41;12.32;;;3.45;;
35971;SDS011;22052;0.000;0.000;2023-01-10T07:54:07;10.02;;;3.75;;
35971;SDS011;22052;0.000;0.000;2023-01-10T07:56:33;10.07;;;3.67;;
35971;SDS011;22052;0.000;0.000;2023-01-10T07:59:00;8.60;;;3.40;;
35971;SDS011;22052;0.000;0.000;2023-01-10T08:01:26;8.25;;;3.50;;
35971;SDS011;22052;0.000;0.000;2023-01-10T08:03:55;9.00;;;3.42;;
35971;SDS011;22052;0.000;0.000;2023-01-10T08:06:30;7.90;;;3.80;;
35971;SDS011;22052;0.000;0.000;2023-01-10T08:08:56;9.80;;;3.55;;
35971;SDS011;22052;0.000;0.000;2023-01-10T08:11:27;14.82;;;3.92;;
35971;SDS011;22052;0.000;0.000;2023-01-10T08:13:58;9.10;;;3.45;;
35971;SDS011;22052;0.000;0.000;2023-01-10T08:16:24;10.05;;;3.90;;
35971;SDS011;22052;0.000;0.000;2023-01-10T08:18:50;9.40;;;3.38;;
35971;SDS011;22052;0.000;0.000;2023-01-10T08:21:17;11.18;;;4.07;;
35971;SDS011;22052;0.000;0.000;2023-01-10T08:23:43;15.43;;;3.90;;
35971;SDS011;22052;0.000;0.000;2023-01-10T08:26:10;11.02;;;3.90;;
35971;SDS011;22052;0.000;0.000;2023-01-10T08:28:36;8.52;;;3.13;;
35971;SDS011;22052;0.000;0.000;2023-01-10T08:31:06;10.13;;;3.05;;
35971;SDS011;22052;0.000;0.000;2023-01-10T08:33:33;9.23;;;3.70;;
35971;SDS011;22052;0.000;0.000;2023-01-10T08:35:59;11.43;;;3.90;;
35971;SDS011;22052;0.000;0.000;2023-01-10T08:38:25;11.73;;;3.42;;
35971;SDS011;22052;0.000;0.000;2023-01-10T08:40:54;12.85;;;4.10;;
35971;SDS011;22052;0.000;0.000;2023-01-10T08:43:21;13.20;;;3.75;;
35971;SDS011;22052;0.000;0.000;2023-01-10T08:45:47;10.15;;;3.50;;
35971;SDS011;22052;0.000;0.000;2023-01-10T08:48:14;12.07;;;3.55;;
35971;SDS011;22052;0.000;0.000;2023-01-10T08:50:40;8.77;;;3.80;;
35971;SDS011;22052;0.000;0.000;2023-01-10T08:53:07;11.93;;;3.70;;
35971;SDS011;22052;0.000;0.000;2023-01-10T08:55:33;12.85;;;4.55;;
35971;SDS011;22052;0.000;0.000;2023-01-10T08:58:00;8.38;;;3.75;;
35971;SDS011;22052;0.000;0.000;2023-01-10T09:00:27;12.20;;;3.70;;
35971;SDS011;22052;0.000;0.000;2023-01-10T09:02:54;10.30;;;3.88;;
35971;SDS011;22052;0.000;0.000;2023-01-10T09:05:21;9.27;;;3.38;;
35971;SDS011;22052;0.000;0.000;2023-01-10T09:07:47;9.23;;;3.80;;
35971;SDS011;22052;0.000;0.000;2023-01-10T09:10:14;9.18;;;3.58;;
35971;SDS011;22052;0.000;0.000;2023-01-10T09:12:40;8.02;;;3.22;;
35971;SDS011;22052;0.000;0.000;2023-01-10T09:15:23;10.73;;;3.70;;
35971;SDS011;22052;0.000;0.000;2023-01-10T09:17:53;8.18;;;3.70;;
35971;SDS011;22052;0.000;0.000;2023-01-10T09:20:20;9.80;;;3.80;;
35971;SDS011;22052;0.000;0.000;2023-01-10T09:22:46;9.82;;;3.95;;
35971;SDS011;22052;0.000;0.000;2023-01-10T09:25:13;10.85;;;3.42;;
35971;SDS011;22052;0.000;0.000;2023-01-10T09:27:39;8.70;;;3.97;;
35971;SDS011;22052;0.000;0.000;2023-01-10T09:30:06;15.73;;;4.22;;
35971;SDS011;22052;0.000;0.000;2023-01-10T09:32:33;11.63;;;3.95;;
35971;SDS011;22052;0.000;0.000;2023-01-10T09:34:59;13.48;;;3.88;;
35971;SDS011;22052;0.000;0.000;2023-01-10T09:37:25;11.88;;;4.00;;
35971;SDS011;22052;0.000;0.000;2023-01-10T09:39:52;9.95;;;3.50;;
35971;SDS011;22052;0.000;0.000;2023-01-10T09:42:22;10.63;;;3.72;;
35971;SDS011;22052;0.000;0.000;2023-01-10T09:45:12;9.70;;;3.80;;
35971;SDS011;22052;0.000;0.000;2023-01-10T09:47:42;13.02;;;3.80;;
35971;SDS011;22052;0.000;0.000;2023-01-10T09:52:43;11.07;;;3.15;;
35971;SDS011;22052;0.000;0.000;2023-01-10T09:55:18;9.30;;;3.33;;
35971;SDS011;22052;0.000;0.000;2023-01-10T09:57:47;12.63;;;3.63;;
35971;SDS011;22052;0.000;0.000;2023-01-10T10:00:16;10.88;;;3.85;;
35971;SDS011;22052;0.000;0.000;2023-01-10T10:02:44;9.63;;;3.72;;
35971;SDS011;22052;0.000;0.000;2023-01-10T10:05:20;12.50;;;3.92;;
35971;SDS011;22052;0.000;0.000;2023-01-10T10:07:58;11.52;;;3.65;;
35971;SDS011;22052;0.000;0.000;2023-01-10T10:10:30;12.77;;;3.75;;
35971;SDS011;22052;0.000;0.000;2023-01-10T10:31:58;9.13;;;3.60;;
35971;SDS011;22052;0.000;0.000;2023-01-10T10:34:30;11.25;;;3.70;;
35971;SDS011;22052;0.000;0.000;2023-01-10T10:42:28;10.57;;;3.70;;
35971;SDS011;22052;0.000;0.000;2023-01-10T10:48:30;11.25;;;3.60;;
35971;SDS011;22052;0.000;0.000;2023-01-10T10:53:56;12.45;;;3.67;;
35971;SDS011;22052;0.000;0.000;2023-01-10T10:56:24;9.98;;;3.55;;
35971;SDS011;22052;0.000;0.000;2023-01-10T10:58:58;10.45;;;3.72;;
35971;SDS011;22052;0.000;0.000;2023-01-10T11:01:24;7.82;;;3.17;;
35971;SDS011;22052;0.000;0.000;2023-01-10T11:03:58;12.57;;;4.03;;
35971;SDS011;22052;0.000;0.000;2023-01-10T11:06:26;11.30;;;3.50;;
35971;SDS011;22052;0.000;0.000;2023-01-10T11:08:59;10.48;;;3.10;;
35971;SDS011;22052;0.000;0.000;2023-01-10T11:15:02;7.88;;;2.92;;
35971;SDS011;22052;0.000;0.000;2023-01-10T11:17:30;9.93;;;3.15;;
35971;SDS011;22052;0.000;0.000;2023-01-10T11:20:16;7.68;;;3.05;;
35971;SDS011;22052;0.000;0.000;2023-01-10T11:23:15;10.40;;;3.47;;
35971;SDS011;22052;0.000;0.000;2023-01-10T11:26:21;6.93;;;3.30;;
35971;SDS011;22052;0.000;0.000;2023-01-10T11:28:51;7.63;;;3.47;;
35971;SDS011;22052;0.000;0.000;2023-01-10T11:31:27;10.50;;;3.30;;
35971;SDS011;22052;0.000;0.000;2023-01-10T11:33:56;7.93;;;3.03;;
35971;SDS011;22052;0.000;0.000;2023-01-10T11:36:22;9.48;;;3.08;;
35971;SDS011;22052;0.000;0.000;2023-01-10T11:39:14;8.88;;;3.35;;
35971;SDS011;22052;0.000;0.000;2023-01-10T11:44:48;7.20;;;3.15;;
35971;SDS011;22052;0.000;0.000;2023-01-10T11:47:14;11.57;;;2.90;;
35971;SDS011;22052;0.000;0.000;2023-01-10T11:49:45;7.35;;;3.15;;
35971;SDS011;22052;0.000;0.000;2023-01-10T11:52:18;7.82;;;3.45;;
35971;SDS011;22052;0.000;0.000;2023-01-10T11:54:45;12.23;;;3.33;;
35971;SDS011;22052;0.000;0.000;2023-01-10T11:57:18;10.27;;;3.22;;
35971;SDS011;22052;0.000;0.000;2023-01-10T12:00:06;7.80;;;3.05;;
35971;SDS011;22052;0.000;0.000;2023-01-10T12:02:38;9.93;;;3.50;;
35971;SDS011;22052;0.000;0.000;2023-01-10T12:05:08;13.60;;;3.63;;
35971;SDS011;22052;0.000;0.000;2023-01-10T12:07:54;8.40;;;2.65;;
35971;SDS011;22052;0.000;0.000;2023-01-10T12:10:21;12.03;;;3.30;;
35971;SDS011;22052;0.000;0.000;2023-01-10T12:12:51;8.52;;;3.28;;
35971;SDS011;22052;0.000;0.000;2023-01-10T12:15:29;10.07;;;3.38;;
35971;SDS011;22052;0.000;0.000;2023-01-10T12:18:09;7.85;;;3.45;;
35971;SDS011;22052;0.000;0.000;2023-01-10T12:21:23;10.57;;;3.25;;
35971;SDS011;22052;0.000;0.000;2023-01-10T12:26:43;11.27;;;3.40;;
35971;SDS011;22052;0.000;0.000;2023-01-10T12:29:11;10.27;;;3.35;;
35971;SDS011;22052;0.000;0.000;2023-01-10T12:31:39;13.40;;;3.28;;
35971;SDS011;22052;0.000;0.000;2023-01-10T12:34:12;12.30;;;3.35;;
35971;SDS011;22052;0.000;0.000;2023-01-10T12:36:48;12.48;;;3.60;;
35971;SDS011;22052;0.000;0.000;2023-01-10T12:39:20;7.95;;;3.03;;
35971;SDS011;22052;0.000;0.000;2023-01-10T12:44:45;12.48;;;3.88;;
35971;SDS011;22052;0.000;0.000;2023-01-10T12:49:53;14.93;;;3.83;;
35971;SDS011;22052;0.000;0.000;2023-01-10T12:55:19;12.68;;;3.60;;
35971;SDS011;22052;0.000;0.000;2023-01-10T12:57:47;10.25;;;3.70;;
35971;SDS011;22052;0.000;0.000;2023-01-10T13:02:49;12.65;;;3.67;;
35971;SDS011;22052;0.000;0.000;2023-01-10T13:05:20;13.32;;;3.53;;
35971;SDS011;22052;0.000;0.000;2023-01-10T13:07:54;14.13;;;3.35;;
35971;SDS011;22052;0.000;0.000;2023-01-10T13:10:29;10.50;;;3.15;;
35971;SDS011;22052;0.000;0.000;2023-01-10T13:15:51;14.63;;;3.42;;
35971;SDS011;22052;0.000;0.000;2023-01-10T13:18:26;13.02;;;3.35;;
35971;SDS011;22052;0.000;0.000;2023-01-10T13:21:03;9.57;;;3.28;;
35971;SDS011;22052;0.000;0.000;2023-01-10T13:23:33;11.18;;;3.00;;
35971;SDS011;22052;0.000;0.000;2023-01-10T13:26:01;10.10;;;3.92;;
35971;SDS011;22052;0.000;0.000;2023-01-10T13:28:29;13.93;;;3.78;;
35971;SDS011;22052;0.000;0.000;2023-01-10T13:31:20;12.80;;;3.65;;
35971;SDS011;22052;0.000;0.000;2023-01-10T13:34:10;14.13;;;3.38;;
35971;SDS011;22052;0.000;0.000;2023-01-10T13:36:59;15.57;;;3.28;;
35971;SDS011;22052;0.000;0.000;2023-01-10T13:39:29;14.30;;;3.53;;
35971;SDS011;22052;0.000;0.000;2023-01-10T14:00:46;13.82;;;4.05;;
35971;SDS011;22052;0.000;0.000;2023-01-10T14:08:49;13.23;;;4.03;;
35971;SDS011;22052;0.000;0.000;2023-01-10T14:11:16;23.02;;;4.28;;
35971;SDS011;22052;0.000;0.000;2023-01-10T14:13:48;23.50;;;4.30;;
35971;SDS011;22052;0.000;0.000;2023-01-10T14:16:29;18.75;;;3.88;;
35971;SDS011;22052;0.000;0.000;2023-01-10T14:18:56;13.18;;;3.75;;
35971;SDS011;22052;0.000;0.000;2023-01-10T14:21:23;19.63;;;4.10;;
35971;SDS011;22052;0.000;0.000;2023-01-10T14:23:51;10.98;;;3.58;;
35971;SDS011;22052;0.000;0.000;2023-01-10T14:28:50;22.50;;;4.35;;
35971;SDS011;22052;0.000;0.000;2023-01-10T14:31:18;27.77;;;4.50;;
35971;SDS011;22052;0.000;0.000;2023-01-10T14:33:44;22.63;;;4.20;;
35971;SDS011;22052;0.000;0.000;2023-01-10T14:36:15;19.08;;;4.07;;
35971;SDS011;22052;0.000;0.000;2023-01-10T14:38:42;20.15;;;3.90;;
35971;SDS011;22052;0.000;0.000;2023-01-10T14:46:51;15.45;;;3.67;;
35971;SDS011;22052;0.000;0.000;2023-01-10T14:49:27;12.45;;;3.63;;
35971;SDS011;22052;0.000;0.000;2023-01-10T14:51:54;11.35;;;3.60;;
35971;SDS011;22052;0.000;0.000;2023-01-10T14:54:25;11.27;;;3.95;;
35971;SDS011;22052;0.000;0.000;2023-01-10T14:56:53;12.43;;;3.75;;
35971;SDS011;22052;0.000;0.000;2023-01-10T15:01:48;17.95;;;3.58;;
35971;SDS011;22052;0.000;0.000;2023-01-10T15:04:16;20.23;;;3.90;;
35971;SDS011;22052;0.000;0.000;2023-01-10T15:06:50;15.25;;;3.50;;
35971;SDS011;22052;0.000;0.000;2023-01-10T15:09:16;20.50;;;3.65;;
35971;SDS011;22052;0.000;0.000;2023-01-10T15:11:42;16.02;;;4.03;;
35971;SDS011;22052;0.000;0.000;2023-01-10T15:14:09;12.10;;;3.92;;
35971;SDS011;22052;0.000;0.000;2023-01-10T15:16:42;10.60;;;3.87;;
35971;SDS011;22052;0.000;0.000;2023-01-10T15:19:13;15.80;;;3.60;;
35971;SDS011;22052;0.000;0.000;2023-01-10T15:21:41;10.38;;;3.47;;
35971;SDS011;22052;0.000;0.000;2023-01-10T15:26:52;12.52;;;3.40;;
35971;SDS011;22052;0.000;0.000;2023-01-10T15:29:23;12.80;;;3.75;;
35971;SDS011;22052;0.000;0.000;2023-01-10T15:31:50;13.43;;;3.85;;
35971;SDS011;22052;0.000;0.000;2023-01-10T15:34:20;10.90;;;3.47;;
35971;SDS011;22052;0.000;0.000;2023-01-10T15:36:49;13.35;;;3.65;;
35971;SDS011;22052;0.000;0.000;2023-01-10T15:39:17;12.90;;;3.25;;
35971;SDS011;22052;0.000;0.000;2023-01-10T15:41:44;11.32;;;3.53;;
35971;SDS011;22052;0.000;0.000;2023-01-10T15:44:21;8.32;;;2.92;;
35971;SDS011;22052;0.000;0.000;2023-01-10T15:46:54;11.48;;;3.60;;
35971;SDS011;22052;0.000;0.000;2023-01-10T15:49:24;10.88;;;3.60;;
35971;SDS011;22052;0.000;0.000;2023-01-10T15:51:50;16.85;;;4.05;;
35971;SDS011;22052;0.000;0.000;2023-01-10T15:56:50;12.43;;;3.55;;
35971;SDS011;22052;0.000;0.000;2023-01-10T15:59:27;14.68;;;3.47;;
35971;SDS011;22052;0.000;0.000;2023-01-10T16:02:04;13.05;;;3.53;;
35971;SDS011;22052;0.000;0.000;2023-01-10T16:04:34;12.23;;;3.55;;
35971;SDS011;22052;0.000;0.000;2023-01-10T16:07:05;8.68;;;3.35;;
35971;SDS011;22052;0.000;0.000;2023-01-10T16:09:32;12.77;;;3.65;;
35971;SDS011;22052;0.000;0.000;2023-01-10T16:11:59;10.73;;;3.08;;
35971;SDS011;22052;0.000;0.000;2023-01-10T16:14:44;11.50;;;3.72;;
35971;SDS011;22052;0.000;0.000;2023-01-10T16:17:10;15.48;;;3.72;;
35971;SDS011;22052;0.000;0.000;2023-01-10T16:19:37;12.43;;;3.40;;
35971;SDS011;22052;0.000;0.000;2023-01-10T16:22:03;20.58;;;4.28;;
35971;SDS011;22052;0.000;0.000;2023-01-10T16:24:30;15.30;;;4.22;;
35971;SDS011;22052;0.000;0.000;2023-01-10T16:26:57;9.80;;;3.33;;
35971;SDS011;22052;0.000;0.000;2023-01-10T16:29:27;9.70;;;3.30;;
35971;SDS011;22052;0.000;0.000;2023-01-10T16:31:53;10.50;;;3.38;;
35971;SDS011;22052;0.000;0.000;2023-01-10T16:34:19;8.63;;;3.25;;
35971;SDS011;22052;0.000;0.000;2023-01-10T16:36:46;16.40;;;4.00;;
35971;SDS011;22052;0.000;0.000;2023-01-10T16:39:16;9.88;;;3.65;;
35971;SDS011;22052;0.000;0.000;2023-01-10T16:41:43;11.20;;;3.70;;
35971;SDS011;22052;0.000;0.000;2023-01-10T16:44:28;10.57;;;3.85;;
35971;SDS011;22052;0.000;0.000;2023-01-10T16:46:55;11.13;;;3.40;;
35971;SDS011;22052;0.000;0.000;2023-01-10T16:49:21;11.35;;;3.35;;
35971;SDS011;22052;0.000;0.000;2023-01-10T16:51:47;7.68;;;3.17;;
35971;SDS011;22052;0.000;0.000;2023-01-10T16:54:14;14.10;;;3.60;;
35971;SDS011;22052;0.000;0.000;2023-01-10T16:56:43;11.68;;;4.05;;
35971;SDS011;22052;0.000;0.000;2023-01-10T16:59:10;10.00;;;3.28;;
35971;SDS011;22052;0.000;0.000;2023-01-10T17:01:39;11.73;;;3.53;;
35971;SDS011;22052;0.000;0.000;2023-01-10T17:04:07;13.02;;;3.40;;
35971;SDS011;22052;0.000;0.000;2023-01-10T17:06:34;14.60;;;3.75;;
35971;SDS011;22052;0.000;0.000;2023-01-10T17:09:00;7.72;;;3.00;;